createdAt,value
2023-11-30T00:00:41.023Z,79.02
2023-11-30T00:05:43.222Z,78.65
2023-11-30T00:10:45.010Z,78.50
2023-11-30T00:15:48.053Z,78.62
2023-11-30T00:20:50.310Z,79.10
2023-11-30T00:25:52.772Z,78.98
2023-11-30T00:30:55.003Z,78.93
2023-11-30T00:35:57.069Z,79.02
2023-11-30T00:40:58.920Z,79.21
2023-11-30T00:46:07.146Z,79.79
2023-11-30T00:51:13.057Z,80.06
2023-11-30T00:56:14.755Z,80.16
2023-11-30T01:01:16.849Z,80.16
2023-11-30T01:06:19.001Z,80.19
2023-11-30T01:11:21.341Z,80.00
2023-11-30T01:16:23.186Z,80.22
2023-11-30T01:21:25.063Z,80.36
2023-11-30T01:26:26.776Z,80.91
2023-11-30T01:31:28.879Z,80.80
2023-11-30T01:36:30.718Z,80.64
2023-11-30T01:41:32.471Z,80.88
2023-11-30T01:46:37.568Z,81.04
2023-11-30T01:51:39.590Z,80.76
2023-11-30T01:56:43.216Z,80.98
2023-11-30T02:01:45.232Z,81.03
2023-11-30T02:06:47.598Z,81.06
2023-11-30T02:11:49.495Z,81.03
2023-11-30T02:16:51.345Z,80.88
2023-11-30T02:21:53.331Z,81.11
2023-11-30T02:26:55.224Z,81.10
2023-11-30T02:31:57.158Z,81.20
2023-11-30T02:36:59.967Z,80.94
2023-11-30T02:42:01.634Z,81.20
2023-11-30T02:47:03.637Z,81.11
2023-11-30T02:52:05.649Z,81.12
2023-11-30T02:57:07.886Z,81.20
2023-11-30T03:02:10.039Z,81.54
2023-11-30T03:07:12.113Z,81.48
2023-11-30T03:12:18.286Z,81.49
2023-11-30T03:17:20.818Z,82.06
2023-11-30T03:22:22.586Z,81.35
2023-11-30T03:27:24.647Z,81.55
2023-11-30T03:32:26.684Z,81.60
2023-11-30T03:37:28.894Z,81.35
2023-11-30T03:42:30.990Z,81.52
2023-11-30T03:47:32.789Z,81.49
2023-11-30T03:52:35.387Z,81.46
2023-11-30T03:57:37.444Z,81.32
2023-11-30T04:02:39.754Z,81.55
2023-11-30T04:07:41.544Z,81.38
2023-11-30T04:12:43.960Z,81.66
2023-11-30T04:17:45.584Z,81.39
2023-11-30T04:22:47.418Z,81.59
2023-11-30T04:27:49.211Z,81.65
2023-11-30T04:32:50.969Z,81.21
2023-11-30T04:37:53.106Z,81.49
2023-11-30T04:42:56.867Z,81.51
2023-11-30T04:47:59.092Z,81.96
2023-11-30T04:53:01.509Z,81.84
2023-11-30T04:58:03.218Z,82.00
2023-11-30T05:03:05.329Z,82.02
2023-11-30T05:08:07.194Z,82.31
2023-11-30T05:13:09.290Z,82.25
2023-11-30T05:18:11.216Z,82.14
2023-11-30T05:23:13.092Z,82.24
2023-11-30T05:28:14.871Z,82.21
2023-11-30T05:33:17.665Z,82.42
2023-11-30T05:38:20.458Z,82.68
2023-11-30T05:43:22.328Z,82.69
2023-11-30T05:48:24.165Z,82.73
2023-11-30T05:53:26.706Z,82.89
2023-11-30T05:58:29.126Z,83.09
2023-11-30T06:03:31.119Z,82.99
2023-11-30T06:08:32.932Z,83.22
2023-11-30T06:13:35.584Z,82.74
2023-11-30T06:18:38.232Z,82.84
2023-11-30T06:23:40.144Z,83.05
2023-11-30T06:28:42.249Z,82.93
2023-11-30T06:33:44.400Z,83.09
2023-11-30T06:38:46.604Z,84.44
2023-11-30T06:43:48.385Z,83.10
2023-11-30T06:48:53.317Z,81.98
2023-11-30T06:53:55.143Z,81.21
2023-11-30T06:58:57.403Z,80.71
2023-11-30T07:03:59.397Z,80.18
2023-11-30T07:09:01.725Z,79.51
2023-11-30T07:14:03.664Z,79.33
2023-11-30T07:19:05.384Z,78.95
2023-11-30T07:24:10.024Z,78.85
2023-11-30T07:29:13.526Z,78.14
2023-11-30T07:34:15.338Z,77.84
2023-11-30T07:39:17.840Z,77.62
2023-11-30T07:44:19.831Z,77.41
2023-11-30T07:49:21.699Z,77.44
2023-11-30T07:54:23.766Z,77.24
2023-11-30T07:59:25.636Z,77.06
2023-11-30T08:04:27.477Z,77.19
2023-11-30T08:09:29.970Z,76.93
2023-11-30T08:14:31.973Z,76.93
2023-11-30T08:19:37.031Z,77.36
2023-11-30T08:24:39.918Z,77.24
2023-11-30T08:29:42.783Z,76.86
2023-11-30T08:34:44.550Z,76.86
2023-11-30T08:39:47.276Z,76.85
2023-11-30T08:44:49.309Z,76.81
2023-11-30T08:49:51.181Z,76.66
2023-11-30T08:54:54.270Z,76.39
2023-11-30T08:59:59.015Z,76.04
2023-11-30T09:05:00.922Z,76.55
2023-11-30T09:10:03.385Z,76.46
2023-11-30T09:15:09.955Z,76.07
2023-11-30T09:20:12.785Z,75.66
2023-11-30T09:25:14.777Z,75.97
2023-11-30T09:30:16.924Z,75.28
2023-11-30T09:35:19.368Z,75.07
2023-11-30T09:40:21.471Z,75.46
2023-11-30T09:45:25.290Z,74.94
2023-11-30T09:50:27.104Z,74.91
2023-11-30T09:55:29.695Z,74.85
2023-11-30T10:00:31.670Z,74.72
2023-11-30T10:05:33.881Z,75.32
2023-11-30T10:10:35.993Z,74.88
2023-11-30T10:15:37.778Z,75.26
2023-11-30T10:20:39.904Z,75.67
2023-11-30T10:25:42.362Z,75.92
2023-11-30T10:30:45.039Z,76.14
2023-11-30T10:35:50.474Z,76.21
2023-11-30T10:41:00.778Z,76.96
2023-11-30T10:46:08.273Z,77.16
2023-11-30T10:51:14.521Z,77.45
2023-11-30T10:56:18.726Z,77.58
2023-11-30T11:01:20.545Z,77.65
2023-11-30T11:06:26.646Z,78.41
2023-11-30T11:11:30.653Z,78.53
2023-11-30T11:16:42.548Z,78.87
2023-11-30T11:21:45.130Z,79.12
2023-11-30T11:26:49.102Z,79.12
2023-11-30T11:31:51.116Z,79.35
2023-11-30T11:36:52.855Z,79.39
2023-11-30T11:41:55.115Z,79.54
2023-11-30T11:46:56.906Z,80.24
2023-11-30T11:51:59.126Z,81.05
2023-11-30T11:57:00.890Z,81.15
2023-11-30T12:02:03.058Z,81.99
2023-11-30T12:07:16.472Z,82.39
2023-11-30T12:12:18.304Z,82.81
2023-11-30T12:17:20.255Z,83.22
2023-11-30T12:22:22.559Z,83.75
2023-11-30T12:27:24.479Z,84.09
2023-11-30T12:32:26.518Z,84.43
2023-11-30T12:37:28.282Z,84.64
2023-11-30T12:42:30.404Z,84.73
2023-11-30T12:47:33.045Z,84.69
2023-11-30T12:52:34.921Z,84.88
2023-11-30T12:57:39.767Z,85.21
2023-11-30T13:02:44.763Z,85.18
2023-11-30T13:07:47.637Z,84.97
2023-11-30T13:12:49.410Z,85.38
2023-11-30T13:17:51.213Z,85.49
2023-11-30T13:22:53.011Z,85.48
2023-11-30T13:27:54.844Z,85.81
2023-11-30T13:32:57.431Z,86.14
2023-11-30T13:37:59.368Z,86.05
2023-11-30T13:43:01.970Z,86.08
2023-11-30T13:48:03.944Z,86.39
2023-11-30T13:53:06.105Z,86.28
2023-11-30T13:58:10.882Z,86.29
2023-11-30T14:03:14.145Z,86.41
2023-11-30T14:08:17.019Z,86.68
2023-11-30T14:13:18.755Z,86.77
2023-11-30T14:18:20.743Z,86.89
2023-11-30T14:23:22.582Z,87.11
2023-11-30T14:28:26.035Z,86.86
2023-11-30T14:33:27.900Z,87.17
2023-11-30T14:38:29.711Z,87.28
2023-11-30T14:43:32.159Z,87.19
2023-11-30T14:48:34.036Z,87.50
2023-11-30T14:53:35.947Z,87.70
2023-11-30T14:58:37.785Z,87.84
2023-11-30T15:03:39.765Z,87.98
2023-11-30T15:08:41.758Z,87.90
2023-11-30T15:13:43.605Z,88.17
2023-11-30T15:18:45.376Z,88.34
2023-11-30T15:23:47.118Z,88.38
2023-11-30T15:28:48.955Z,88.31
2023-11-30T15:33:51.232Z,88.40
2023-11-30T15:38:53.177Z,88.33
2023-11-30T15:43:55.040Z,88.16
2023-11-30T15:48:56.906Z,88.66
2023-11-30T15:53:58.798Z,88.63
2023-11-30T15:59:01.037Z,89.20
2023-11-30T16:04:02.923Z,89.44
2023-11-30T16:09:05.528Z,88.93
2023-11-30T16:14:07.599Z,89.28
2023-11-30T16:19:09.982Z,89.80
2023-11-30T16:24:12.081Z,90.53
2023-11-30T16:29:13.898Z,90.73
2023-11-30T16:34:17.103Z,91.01
2023-11-30T16:39:19.154Z,91.38
2023-11-30T16:44:21.381Z,91.08
2023-11-30T16:49:23.269Z,91.03
2023-11-30T16:54:25.192Z,91.05
2023-11-30T16:59:27.489Z,90.85
2023-11-30T17:04:29.249Z,90.98
2023-11-30T17:09:31.002Z,91.48
2023-11-30T17:14:32.874Z,91.00
2023-11-30T17:19:34.605Z,90.79
2023-11-30T17:24:36.388Z,90.64
2023-11-30T17:29:39.062Z,90.88
2023-11-30T17:34:41.181Z,90.43
2023-11-30T17:39:43.062Z,90.41
2023-11-30T17:44:44.801Z,90.30
2023-11-30T17:49:46.923Z,90.21
2023-11-30T17:54:50.304Z,90.16
2023-11-30T17:59:52.233Z,90.43
2023-11-30T18:04:53.996Z,90.22
2023-11-30T18:09:56.112Z,90.37
2023-11-30T18:14:58.088Z,90.46
2023-11-30T18:20:00.486Z,91.04
2023-11-30T18:25:02.633Z,91.06
2023-11-30T18:30:05.009Z,91.00
2023-11-30T18:35:07.570Z,91.10
2023-11-30T18:40:15.019Z,90.85
2023-11-30T18:45:17.097Z,91.20
2023-11-30T18:50:19.339Z,91.07
2023-11-30T18:55:21.123Z,91.18
2023-11-30T19:00:23.355Z,90.78
2023-11-30T19:05:25.765Z,90.69
2023-11-30T19:10:27.748Z,90.93
2023-11-30T19:15:31.448Z,91.63
2023-11-30T19:20:33.628Z,91.36
2023-11-30T19:25:35.488Z,91.74
2023-11-30T19:30:38.526Z,92.30
2023-11-30T19:35:40.291Z,92.09
2023-11-30T19:40:42.164Z,92.05
2023-11-30T19:45:44.280Z,92.55
2023-11-30T19:50:46.315Z,92.20
2023-11-30T19:55:48.221Z,92.41
2023-11-30T20:00:52.672Z,92.32
2023-11-30T20:05:54.476Z,92.03
2023-11-30T20:10:56.305Z,92.18
2023-11-30T20:15:58.651Z,91.87
2023-11-30T20:21:00.593Z,91.79
2023-11-30T20:26:02.714Z,91.78
2023-11-30T20:31:04.908Z,91.80
2023-11-30T20:36:06.907Z,91.69
2023-11-30T20:41:10.252Z,91.61
2023-11-30T20:46:13.906Z,91.51
2023-11-30T20:51:19.695Z,91.71
2023-11-30T20:56:21.697Z,91.56
2023-11-30T21:01:23.827Z,91.36
2023-11-30T21:06:27.538Z,91.68
2023-11-30T21:11:29.996Z,91.76
2023-11-30T21:16:31.926Z,91.67
2023-11-30T21:21:34.307Z,91.86
2023-11-30T21:26:36.025Z,91.71
2023-11-30T21:31:41.351Z,91.70
2023-11-30T21:36:43.788Z,91.55
2023-11-30T21:41:45.711Z,91.70
2023-11-30T21:46:47.465Z,91.32
2023-11-30T21:51:49.387Z,91.43
2023-11-30T21:56:51.692Z,91.48
2023-11-30T22:01:53.698Z,91.68
2023-11-30T22:06:55.528Z,91.73
2023-11-30T22:11:58.554Z,91.79
2023-11-30T22:17:00.300Z,92.11
2023-11-30T22:22:02.330Z,91.94
2023-11-30T22:27:05.626Z,91.82
2023-11-30T22:32:08.466Z,92.02
2023-11-30T22:37:10.697Z,92.00
2023-11-30T22:42:12.496Z,91.95
2023-11-30T22:47:15.411Z,91.74
2023-11-30T22:52:17.543Z,92.17
2023-11-30T22:57:19.911Z,91.89
2023-11-30T23:02:23.586Z,91.95
2023-11-30T23:07:25.468Z,92.20
2023-11-30T23:12:27.803Z,92.25
2023-11-30T23:17:30.199Z,92.41
2023-11-30T23:22:32.059Z,92.41
2023-11-30T23:27:34.472Z,92.35
2023-11-30T23:32:36.371Z,92.26
2023-11-30T23:37:38.221Z,92.13
2023-11-30T23:42:40.543Z,92.21
2023-11-30T23:47:43.225Z,92.21
2023-11-30T23:52:45.406Z,92.17
2023-11-30T23:57:47.740Z,92.23
